Time;durP1;ratioP1;P1;durP2;ratioP2;P2;SDS_P1;SDS_P2;PMS_P1;PMS_P2;Temp;Humidity;BMP_temperature;BMP_pressure;BME280_temperature;BME280_humidity;BME280_pressure;Samples;Min_cycle;Max_cycle;Signal;HPM_P1;HPM_P2
2023/05/15 00:03:00;;;;;;;4.10;3.80;;;15.90;41.30;;;;;;10372677;28;20736;-69
2023/05/15 00:08:03;;;;;;;4.00;3.70;;;15.90;41.00;;;;;;10375889;28;20261;-70
2023/05/15 00:13:07;;;;;;;3.93;3.63;;;15.80;41.00;;;;;;10369984;28;20237;-69
2023/05/15 00:18:11;;;;;;;4.27;3.97;;;15.70;41.20;;;;;;10375242;28;20234;-69
2023/05/15 00:23:14;;;;;;;3.97;3.77;;;15.70;40.90;;;;;;10367719;28;20229;-69
2023/05/15 00:28:18;;;;;;;4.17;3.87;;;15.60;41.00;;;;;;10382470;28;20233;-69
2023/05/15 00:33:21;;;;;;;4.23;3.93;;;15.50;41.20;;;;;;10371488;28;20234;-69
2023/05/15 00:38:24;;;;;;;4.53;4.13;;;15.40;41.00;;;;;;10369789;28;20230;-69
2023/05/15 00:43:30;;;;;;;3.87;3.57;;;15.40;41.60;;;;;;10372733;28;20237;-69
2023/05/15 00:48:33;;;;;;;4.27;3.97;;;15.30;41.20;;;;;;10380692;28;20240;-69
2023/05/15 00:53:37;;;;;;;4.20;3.90;;;15.30;41.20;;;;;;10370359;28;20233;-69
2023/05/15 00:58:43;;;;;;;4.50;4.10;;;15.20;41.10;;;;;;10375073;28;20860;-69
2023/05/15 01:03:46;;;;;;;4.00;3.70;;;15.00;41.50;;;;;;10373799;28;20222;-69
2023/05/15 01:08:50;;;;;;;3.60;3.40;;;15.00;41.20;;;;;;10373488;28;20230;-69
2023/05/15 01:13:54;;;;;;;3.70;3.40;;;14.90;41.30;;;;;;10376009;28;20228;-70
2023/05/15 01:18:57;;;;;;;2.93;2.73;;;14.90;41.40;;;;;;10371487;28;20238;-69
2023/05/15 01:24:16;;;;;;;4.23;3.93;;;14.80;41.10;;;;;;10374778;28;20238;-69
2023/05/15 01:29:27;;;;;;;4.30;3.90;;;14.80;41.80;;;;;;10380477;28;20228;-69
2023/05/15 01:34:34;;;;;;;3.97;3.60;;;14.70;41.50;;;;;;10382958;28;20238;-69
2023/05/15 01:39:40;;;;;;;4.73;4.30;;;14.70;41.40;;;;;;10383397;28;20232;-69
2023/05/15 01:44:50;;;;;;;4.30;4.00;;;14.70;41.60;;;;;;10383930;28;20237;-69
2023/05/15 01:49:55;;;;;;;4.60;4.30;;;14.70;41.80;;;;;;10383691;28;20232;-69
2023/05/15 01:55:00;;;;;;;6.40;5.80;;;14.60;41.60;;;;;;10381117;28;20230;-69
2023/05/15 02:00:06;;;;;;;6.10;5.60;;;14.60;41.60;;;;;;10381434;28;20264;-69
2023/05/15 02:05:10;;;;;;;6.00;5.40;;;14.60;42.30;;;;;;10378143;28;20233;-69
2023/05/15 02:10:14;;;;;;;5.90;5.50;;;14.60;42.00;;;;;;10376491;28;20233;-69
2023/05/15 02:15:20;;;;;;;5.93;5.43;;;14.50;42.20;;;;;;10374912;28;20240;-69
2023/05/15 02:20:23;;;;;;;5.97;5.47;;;14.50;42.30;;;;;;10375526;28;20244;-69
2023/05/15 02:25:34;;;;;;;6.97;6.37;;;14.50;42.00;;;;;;10379539;28;20233;-69
2023/05/15 02:30:48;;;;;;;5.97;5.37;;;14.50;43.00;;;;;;10380877;28;20244;-69
2023/05/15 02:35:57;;;;;;;5.77;5.37;;;14.50;43.20;;;;;;10378298;28;20735;-69
2023/05/15 02:41:01;;;;;;;5.93;5.50;;;14.50;42.70;;;;;;10378433;28;20260;-69
2023/05/15 02:46:07;;;;;;;6.67;6.07;;;14.50;42.40;;;;;;10380107;28;20236;-70
2023/05/15 02:51:10;;;;;;;6.17;5.57;;;14.40;42.80;;;;;;10376243;28;20313;-69
2023/05/15 02:56:14;;;;;;;5.83;5.43;;;14.40;42.40;;;;;;10380353;28;20234;-69
2023/05/15 03:01:18;;;;;;;6.07;5.60;;;14.40;42.50;;;;;;10373055;28;20237;-69
2023/05/15 03:06:21;;;;;;;6.00;5.50;;;14.40;43.10;;;;;;10379706;28;20321;-69
2023/05/15 03:11:24;;;;;;;5.67;5.27;;;14.40;42.70;;;;;;10378898;28;20230;-69
2023/05/15 03:16:29;;;;;;;5.43;5.00;;;14.40;42.90;;;;;;10373915;28;20234;-69
2023/05/15 03:21:33;;;;;;;5.27;4.87;;;14.40;43.70;;;;;;10375424;28;20722;-69
2023/05/15 03:26:39;;;;;;;5.40;4.90;;;14.40;43.10;;;;;;10375373;28;20225;-69
2023/05/15 03:31:43;;;;;;;5.70;5.07;;;14.40;43.20;;;;;;10378786;28;20218;-69
2023/05/15 03:36:46;;;;;;;5.17;4.70;;;14.50;43.90;;;;;;10379633;28;20240;-69
2023/05/15 03:41:50;;;;;;;4.50;4.20;;;14.50;43.30;;;;;;10368065;28;20218;-69
2023/05/15 03:46:54;;;;;;;4.60;4.30;;;14.60;43.40;;;;;;10378363;28;20234;-69
2023/05/15 03:51:57;;;;;;;4.77;4.37;;;14.60;43.90;;;;;;10374821;28;20224;-70
2023/05/15 03:57:02;;;;;;;5.07;4.57;;;14.60;43.20;;;;;;10371499;28;20241;-68
2023/05/15 04:02:06;;;;;;;4.57;4.27;;;14.70;43.20;;;;;;10373093;28;20288;-69
2023/05/15 04:07:10;;;;;;;4.73;4.10;;;14.60;43.40;;;;;;10372596;28;20597;-69
2023/05/15 04:12:13;;;;;;;4.60;4.13;;;14.60;43.20;;;;;;10371183;28;20252;-69
2023/05/15 04:17:17;;;;;;;4.07;3.77;;;14.70;43.20;;;;;;10376936;28;20245;-69
2023/05/15 04:22:20;;;;;;;4.53;3.63;;;14.70;43.60;;;;;;10372917;28;20229;-69
2023/05/15 04:27:23;;;;;;;3.37;3.13;;;14.70;43.30;;;;;;10370568;28;20296;-69
2023/05/15 04:32:30;;;;;;;4.70;4.00;;;14.70;43.40;;;;;;10371579;28;20234;-69
2023/05/15 04:37:33;;;;;;;4.00;3.60;;;14.70;44.10;;;;;;10369532;28;20245;-69
2023/05/15 04:42:36;;;;;;;3.90;3.60;;;14.70;43.40;;;;;;10367426;28;20218;-69
2023/05/15 04:47:42;;;;;;;3.73;3.43;;;14.70;43.70;;;;;;10371424;28;20261;-69
2023/05/15 04:52:46;;;;;;;4.13;3.73;;;14.70;44.10;;;;;;10370295;28;20772;-68
2023/05/15 04:57:50;;;;;;;3.67;3.37;;;14.70;43.70;;;;;;10372971;28;20233;-69
2023/05/15 05:02:54;;;;;;;4.70;4.30;;;14.70;44.10;;;;;;10379749;28;21008;-69
2023/05/15 05:07:58;;;;;;;4.87;4.20;;;14.70;44.10;;;;;;10380660;28;20722;-68
2023/05/15 05:13:01;;;;;;;3.57;3.33;;;14.80;44.20;;;;;;10373627;28;20234;-69
2023/05/15 05:18:06;;;;;;;3.83;3.53;;;14.80;44.20;;;;;;10375813;28;20222;-69
2023/05/15 05:23:09;;;;;;;4.23;3.93;;;14.80;44.20;;;;;;10371075;28;20230;-70
2023/05/15 05:28:12;;;;;;;4.60;4.30;;;14.90;44.30;;;;;;10380494;28;21025;-69
2023/05/15 05:33:17;;;;;;;5.77;5.30;;;14.90;44.30;;;;;;10375467;28;20239;-69
2023/05/15 05:38:20;;;;;;;6.97;5.43;;;14.90;44.30;;;;;;10378068;28;20229;-70
2023/05/15 05:43:25;;;;;;;6.40;5.90;;;14.80;44.20;;;;;;10381658;28;20232;-69
2023/05/15 05:48:30;;;;;;;6.67;6.07;;;14.80;44.20;;;;;;10381134;28;20237;-69
2023/05/15 05:53:33;;;;;;;6.33;5.83;;;14.90;44.30;;;;;;10378989;28;20226;-69
2023/05/15 05:58:36;;;;;;;6.47;5.97;;;14.90;44.30;;;;;;10377609;28;20229;-70
2023/05/15 06:03:43;;;;;;;8.60;7.57;;;14.90;44.30;;;;;;10384802;28;20222;-70
2023/05/15 06:08:46;;;;;;;8.40;7.70;;;14.90;45.20;;;;;;10383326;28;20234;-69
2023/05/15 06:13:50;;;;;;;8.53;7.83;;;15.00;44.30;;;;;;10378054;28;20226;-69
2023/05/15 06:18:55;;;;;;;8.80;8.07;;;15.00;44.30;;;;;;10375924;28;20245;-69
2023/05/15 06:23:58;;;;;;;8.63;7.73;;;15.00;45.10;;;;;;10361981;28;20222;-69
2023/05/15 06:29:01;;;;;;;9.27;8.40;;;15.00;44.40;;;;;;10366174;28;20238;-69
2023/05/15 06:34:06;;;;;;;9.97;9.07;;;15.00;44.50;;;;;;10366908;28;20234;-69
2023/05/15 06:39:10;;;;;;;10.80;9.70;;;15.00;45.20;;;;;;10368746;28;20914;-69
2023/05/15 06:44:13;;;;;;;9.63;8.70;;;15.10;44.80;;;;;;10370296;28;20227;-70
2023/05/15 06:49:18;;;;;;;10.13;9.23;;;15.10;44.80;;;;;;10366261;28;20237;-70
2023/05/15 06:54:21;;;;;;;9.00;8.20;;;15.10;45.40;;;;;;10370336;28;20248;-70
2023/05/15 06:59:24;;;;;;;8.33;7.53;;;15.20;44.90;;;;;;10372639;28;20249;-69
2023/05/15 07:04:30;;;;;;;8.10;7.40;;;15.20;45.00;;;;;;10373871;28;20218;-69
2023/05/15 07:09:34;;;;;;;8.80;7.90;;;15.30;45.50;;;;;;10371894;28;20230;-69
2023/05/15 07:14:37;;;;;;;9.03;8.33;;;15.40;45.40;;;;;;10373037;28;20227;-69
2023/05/15 07:19:42;;;;;;;9.17;8.37;;;15.40;45.50;;;;;;10374312;28;20233;-69
2023/05/15 07:24:46;;;;;;;8.97;8.17;;;15.50;45.50;;;;;;10373015;28;20712;-69
2023/05/15 07:29:49;;;;;;;8.50;7.70;;;15.60;45.00;;;;;;10371589;28;20250;-69
2023/05/15 07:34:54;;;;;;;7.77;7.07;;;15.60;44.90;;;;;;10372008;28;20226;-70
2023/05/15 07:39:57;;;;;;;6.73;6.17;;;15.60;45.70;;;;;;10376722;28;20233;-69
2023/05/15 07:45:00;;;;;;;7.43;6.83;;;15.60;45.60;;;;;;10373818;28;20226;-69
2023/05/15 07:50:06;;;;;;;7.40;6.80;;;15.70;45.40;;;;;;10375141;28;20222;-69
2023/05/15 07:55:10;;;;;;;7.63;6.93;;;15.80;45.80;;;;;;10371217;28;20234;-69
2023/05/15 08:00:14;;;;;;;7.03;6.43;;;15.90;45.80;;;;;;10364135;28;20238;-69
2023/05/15 08:05:18;;;;;;;6.33;5.83;;;16.10;46.60;;;;;;10368087;28;20233;-69
2023/05/15 08:10:23;;;;;;;7.20;6.50;;;16.20;46.30;;;;;;10367186;28;20230;-70
2023/05/15 08:15:28;;;;;;;5.77;5.10;;;16.40;46.50;;;;;;10365390;28;20233;-69
2023/05/15 08:20:32;;;;;;;4.63;4.17;;;16.70;46.30;;;;;;10368248;28;20234;-68
2023/05/15 08:25:35;;;;;;;3.90;3.60;;;17.00;46.10;;;;;;10363453;28;20229;-70
2023/05/15 08:30:38;;;;;;;4.40;4.00;;;17.10;45.40;;;;;;10364516;28;20244;-70
2023/05/15 08:35:43;;;;;;;5.00;4.60;;;17.40;45.70;;;;;;10366309;28;20816;-69
2023/05/15 08:40:50;;;;;;;4.63;4.30;;;17.50;44.50;;;;;;10365667;28;20233;-70
2023/05/15 08:45:54;;;;;;;4.20;3.90;;;17.60;44.90;;;;;;10363113;28;20241;-70
2023/05/15 08:51:00;;;;;;;4.70;4.40;;;17.90;45.40;;;;;;10357123;28;20645;-70
2023/05/15 08:56:03;;;;;;;5.00;4.60;;;18.10;44.40;;;;;;10367181;28;20885;-69
2023/05/15 10:00:10;;;;;;;5.40;5.00;;;15.90;50.50;;;;;;10506898;27;20976;-68
2023/05/15 10:05:13;;;;;;;5.00;4.60;;;16.30;50.00;;;;;;10476808;28;20228;-69
2023/05/15 10:10:16;;;;;;;4.00;3.70;;;17.10;48.70;;;;;;10472965;28;20259;-69
2023/05/15 10:15:22;;;;;;;5.93;5.03;;;17.90;46.80;;;;;;10474096;28;20232;-69
2023/05/15 10:20:26;;;;;;;4.60;4.30;;;18.50;44.80;;;;;;10474327;28;20232;-69
2023/05/15 10:25:35;;;;;;;4.27;3.90;;;18.90;45.90;;;;;;10469352;28;20244;-73
2023/05/15 10:30:42;;;;;;;3.57;3.37;;;19.40;43.10;;;;;;10465615;28;20751;-68
2023/05/15 10:35:47;;;;;;;3.93;3.63;;;19.70;42.10;;;;;;10466501;28;20246;-68
2023/05/15 10:40:52;;;;;;;3.83;3.53;;;20.00;41.40;;;;;;10464363;28;20234;-68
2023/05/15 10:46:09;;;;;;;4.57;4.27;;;20.20;41.60;;;;;;10472099;28;20301;-69
2023/05/15 10:51:17;;;;;;;4.03;3.77;;;20.40;40.90;;;;;;10472254;28;20232;-69
2023/05/15 10:56:21;;;;;;;3.80;3.60;;;20.60;40.40;;;;;;10475979;28;20237;-68
2023/05/15 11:01:31;;;;;;;4.73;4.40;;;20.60;40.70;;;;;;10465608;28;20732;-68
2023/05/15 11:06:35;;;;;;;2.93;2.67;;;20.70;40.20;;;;;;10462094;28;20252;-69
2023/05/15 11:11:55;;;;;;;2.10;2.00;;;20.70;39.40;;;;;;10448158;28;20748;-68
2023/05/15 11:17:03;;;;;;;2.07;1.97;;;20.60;37.00;;;;;;10440093;28;20870;-68
2023/05/15 11:22:18;;;;;;;1.70;1.60;;;20.30;36.80;;;;;;10438085;28;20880;-70
2023/05/15 11:27:24;;;;;;;1.90;1.80;;;20.10;36.60;;;;;;10436968;28;20331;-68
2023/05/15 11:32:55;;;;;;;2.00;1.90;;;19.90;36.60;;;;;;10440774;28;20696;-68
2023/05/15 11:37:59;;;;;;;2.23;1.90;;;19.70;36.20;;;;;;10444652;28;20239;-68
2023/05/15 11:43:08;;;;;;;2.00;1.90;;;19.60;37.40;;;;;;10488920;28;20232;-68
2023/05/15 11:48:15;;;;;;;2.03;1.90;;;19.50;36.80;;;;;;10482408;28;20234;-68
2023/05/15 11:53:19;;;;;;;1.80;1.70;;;19.50;36.20;;;;;;10484143;28;20690;-68
2023/05/15 11:58:24;;;;;;;1.60;1.50;;;19.40;37.40;;;;;;10482667;28;20254;-68
2023/05/15 12:03:34;;;;;;;2.43;1.90;;;19.50;37.20;;;;;;10474849;28;20250;-67
2023/05/15 12:08:38;;;;;;;2.10;1.90;;;19.50;36.10;;;;;;10477758;28;20248;-68
2023/05/15 12:13:42;;;;;;;2.27;2.17;;;19.50;38.00;;;;;;10472354;28;20233;-67
2023/05/15 12:18:47;;;;;;;2.87;2.27;;;19.60;38.10;;;;;;10476900;28;20803;-67
2023/05/15 12:23:52;;;;;;;3.00;2.70;;;19.80;37.40;;;;;;10473322;28;20227;-67
2023/05/15 12:28:58;;;;;;;2.70;2.50;;;20.00;38.50;;;;;;10473437;28;20929;-67
2023/05/15 12:34:03;;;;;;;2.90;2.70;;;20.20;38.50;;;;;;10480785;28;20224;-67
2023/05/15 12:39:07;;;;;;;3.77;3.43;;;20.40;36.90;;;;;;10483533;28;20228;-68
2023/05/15 12:44:16;;;;;;;2.63;2.50;;;20.60;37.00;;;;;;10482599;28;20224;-67
2023/05/15 12:49:24;;;;;;;3.97;2.70;;;20.70;36.00;;;;;;10466821;28;20236;-67
2023/05/15 12:54:27;;;;;;;2.57;2.47;;;20.80;35.30;;;;;;10473489;28;20582;-67
2023/05/15 12:59:31;;;;;;;2.83;2.63;;;20.90;36.70;;;;;;10474950;28;20734;-67
2023/05/15 13:04:36;;;;;;;3.03;2.83;;;21.10;36.50;;;;;;10470595;28;20236;-67
2023/05/15 13:09:39;;;;;;;2.77;2.63;;;21.20;36.30;;;;;;10478334;28;20228;-67
2023/05/15 13:14:43;;;;;;;3.57;3.37;;;21.40;37.60;;;;;;10472239;28;21372;-67
2023/05/15 13:19:47;;;;;;;2.97;2.77;;;21.60;36.90;;;;;;10474101;28;20224;-67
2023/05/15 13:24:53;;;;;;;2.80;2.60;;;21.70;36.90;;;;;;10471316;28;20228;-66
2023/05/15 13:29:56;;;;;;;2.83;2.73;;;21.90;35.40;;;;;;10476817;28;20227;-67
2023/05/15 13:35:00;;;;;;;3.10;2.90;;;21.90;34.60;;;;;;10477649;28;20220;-67
2023/05/15 13:40:06;;;;;;;3.47;3.27;;;21.90;33.90;;;;;;10437184;28;20255;-67
2023/05/15 13:45:11;;;;;;;3.43;3.23;;;21.90;34.60;;;;;;10430784;28;20221;-67
2023/05/15 13:50:16;;;;;;;3.30;3.10;;;22.00;34.30;;;;;;10435365;28;20227;-67
2023/05/15 13:55:19;;;;;;;3.47;3.17;;;22.00;33.80;;;;;;10435560;28;20229;-66
2023/05/15 14:00:25;;;;;;;3.73;3.43;;;22.00;34.60;;;;;;10439290;28;20374;-66
2023/05/15 14:05:30;;;;;;;3.73;3.20;;;22.10;34.70;;;;;;10434263;28;20225;-66
2023/05/15 14:10:33;;;;;;;2.90;2.80;;;22.20;34.70;;;;;;10444239;28;20221;-66
2023/05/15 14:15:37;;;;;;;2.63;2.53;;;22.30;34.50;;;;;;10431911;28;20221;-66
2023/05/15 14:20:41;;;;;;;2.30;2.20;;;22.20;33.70;;;;;;10428970;28;20225;-67
2023/05/15 14:25:44;;;;;;;2.23;2.03;;;22.10;32.70;;;;;;10432644;28;20224;-67
2023/05/15 14:30:48;;;;;;;2.23;1.90;;;21.90;33.00;;;;;;10432242;28;20240;-67
2023/05/15 14:35:52;;;;;;;1.90;1.80;;;21.70;32.80;;;;;;10434973;28;21014;-67
2023/05/15 14:40:56;;;;;;;2.10;1.80;;;21.60;32.40;;;;;;10436670;28;20235;-67
2023/05/15 14:45:59;;;;;;;1.90;1.80;;;21.50;32.90;;;;;;10446538;28;20217;-67
2023/05/15 14:51:04;;;;;;;1.90;1.80;;;21.50;33.00;;;;;;10437859;28;20294;-67
2023/05/15 14:56:07;;;;;;;2.10;2.00;;;21.50;33.10;;;;;;10448069;28;20240;-68
2023/05/15 15:01:10;;;;;;;2.40;2.20;;;21.50;33.30;;;;;;10440889;28;20998;-67
2023/05/15 15:06:15;;;;;;;2.30;2.20;;;21.40;33.30;;;;;;10441839;28;20225;-69
2023/05/15 15:11:18;;;;;;;4.40;2.80;;;21.40;32.60;;;;;;10438647;28;20227;-69
2023/05/15 15:16:21;;;;;;;2.80;2.60;;;21.20;33.60;;;;;;10441497;28;20225;-69
2023/05/15 15:21:26;;;;;;;2.47;2.27;;;21.00;33.70;;;;;;10443342;28;20816;-69
2023/05/15 15:26:29;;;;;;;2.73;2.50;;;20.60;34.10;;;;;;10445685;28;20316;-70
2023/05/15 15:31:32;;;;;;;2.63;2.43;;;20.30;35.10;;;;;;10446254;28;20251;-70
2023/05/15 15:36:38;;;;;;;2.80;2.60;;;20.10;35.70;;;;;;10442970;28;20852;-68
2023/05/15 15:41:41;;;;;;;4.13;2.57;;;19.90;36.40;;;;;;10441376;28;20226;-70
2023/05/15 15:46:44;;;;;;;2.80;2.60;;;19.80;36.30;;;;;;10441301;28;20225;-79
2023/05/15 15:51:49;;;;;;;3.10;2.90;;;19.70;36.20;;;;;;10434658;28;21191;-78
2023/05/15 15:56:52;;;;;;;3.03;2.83;;;19.60;36.20;;;;;;10440235;28;20239;-75
2023/05/15 16:01:56;;;;;;;3.10;2.90;;;19.50;36.10;;;;;;10437910;28;20728;-80
2023/05/15 16:07:00;;;;;;;4.50;4.20;;;19.40;36.00;;;;;;10435186;28;20227;-77
2023/05/15 16:12:04;;;;;;;3.57;3.37;;;19.40;36.40;;;;;;10442584;28;20252;-76
2023/05/15 16:17:07;;;;;;;3.50;3.20;;;19.30;36.00;;;;;;10430402;28;20599;-76
2023/05/15 16:22:12;;;;;;;3.30;2.93;;;19.20;35.80;;;;;;10447357;28;20372;-75
2023/05/15 16:27:15;;;;;;;3.17;2.97;;;19.20;36.30;;;;;;10444914;28;20224;-76
2023/05/15 16:32:19;;;;;;;3.13;2.93;;;19.10;36.90;;;;;;10440161;28;20352;-75
2023/05/15 16:37:24;;;;;;;3.10;2.90;;;19.10;36.30;;;;;;10441498;28;20237;-75
2023/05/15 16:42:27;;;;;;;3.37;3.17;;;19.10;36.30;;;;;;10450037;28;20242;-75
2023/05/15 16:47:30;;;;;;;3.10;2.90;;;19.00;36.40;;;;;;10441153;28;20637;-76
2023/05/15 16:52:37;;;;;;;3.20;2.90;;;19.00;36.70;;;;;;10444765;28;20716;-76
2023/05/15 16:57:40;;;;;;;2.87;2.67;;;19.10;36.80;;;;;;10438009;28;20278;-76
2023/05/15 17:02:43;;;;;;;3.00;2.80;;;19.10;36.50;;;;;;10442076;28;20225;-76
2023/05/15 17:07:48;;;;;;;2.70;2.50;;;19.20;36.70;;;;;;10446780;28;20448;-76
2023/05/15 17:12:51;;;;;;;3.30;3.10;;;19.20;36.80;;;;;;10444222;28;20270;-76
2023/05/15 17:17:54;;;;;;;3.40;3.20;;;19.30;37.20;;;;;;10443107;28;20229;-76
2023/05/15 17:22:59;;;;;;;4.00;3.57;;;19.30;36.80;;;;;;10442881;28;20228;-77
2023/05/15 17:28:02;;;;;;;3.47;3.17;;;19.30;36.60;;;;;;10445673;28;20213;-75
2023/05/15 17:33:05;;;;;;;3.57;3.30;;;19.20;36.30;;;;;;10443252;28;20599;-77
2023/05/15 17:38:10;;;;;;;3.63;3.33;;;19.10;36.10;;;;;;10442738;28;20261;-76
2023/05/15 17:43:13;;;;;;;2.97;2.77;;;19.00;36.40;;;;;;10445111;28;20228;-77
2023/05/15 17:48:16;;;;;;;3.73;3.43;;;18.90;36.50;;;;;;10441723;28;20221;-76
2023/05/15 17:53:23;;;;;;;3.40;3.20;;;18.90;36.90;;;;;;10452573;28;20229;-76
2023/05/15 17:58:26;;;;;;;3.30;3.00;;;18.80;37.10;;;;;;10452748;28;20719;-77
2023/05/15 18:03:29;;;;;;;3.40;3.20;;;18.70;37.00;;;;;;10458393;28;20328;-78
2023/05/15 18:08:34;;;;;;;3.47;3.27;;;18.70;37.20;;;;;;10459060;28;20259;-77
2023/05/15 18:13:37;;;;;;;3.30;3.10;;;18.60;37.30;;;;;;10461832;28;20235;-78
2023/05/15 18:18:41;;;;;;;4.00;3.70;;;18.60;37.20;;;;;;10457706;28;20229;-78
2023/05/15 18:23:46;;;;;;;5.87;4.73;;;18.60;37.30;;;;;;10462641;28;20701;-78
2023/05/15 18:28:51;;;;;;;11.53;5.90;;;18.60;37.30;;;;;;10461615;28;20213;-79
2023/05/15 18:33:54;;;;;;;6.10;4.40;;;18.50;37.30;;;;;;10463366;28;20229;-80
2023/05/15 18:39:04;;;;;;;5.07;4.17;;;18.50;37.30;;;;;;10452837;28;20272;-80
2023/05/15 18:44:33;;;;;;;4.10;3.80;;;18.40;37.50;;;;;;10422413;28;20264;-81
2023/05/15 18:49:50;;;;;;;6.20;3.57;;;18.40;37.60;;;;;;10449211;28;20215;-81
2023/05/15 18:54:56;;;;;;;3.73;3.40;;;18.30;37.40;;;;;;10448263;28;20317;-81
2023/05/15 18:59:59;;;;;;;3.50;3.20;;;18.30;37.60;;;;;;10445122;28;20238;-81
2023/05/15 19:05:03;;;;;;;3.60;3.30;;;18.30;37.40;;;;;;10489477;28;20260;-81
2023/05/15 19:10:09;;;;;;;3.33;3.13;;;18.30;37.40;;;;;;10481542;28;20227;-76
2023/05/15 19:15:15;;;;;;;3.60;3.30;;;18.30;37.50;;;;;;10488094;28;20220;-76
2023/05/15 19:20:21;;;;;;;3.90;3.60;;;18.20;37.40;;;;;;10486245;28;20239;-77
2023/05/15 19:25:27;;;;;;;4.43;3.67;;;18.10;37.70;;;;;;10476552;28;20249;-77
2023/05/15 19:30:30;;;;;;;4.43;4.03;;;18.00;38.20;;;;;;10479979;28;20341;-74
2023/05/15 19:35:35;;;;;;;3.80;3.50;;;18.00;37.80;;;;;;10487182;28;20228;-77
2023/05/15 19:40:44;;;;;;;3.23;3.03;;;18.00;38.20;;;;;;10485407;28;20223;-76
2023/05/15 19:45:47;;;;;;;3.27;3.07;;;18.00;38.40;;;;;;10482413;28;20216;-82
2023/05/15 19:50:51;;;;;;;3.03;2.83;;;18.00;38.20;;;;;;10489374;28;20227;-81
2023/05/15 19:56:03;;;;;;;3.60;3.30;;;18.10;38.10;;;;;;10489503;28;20226;-78
2023/05/15 20:01:07;;;;;;;3.47;3.03;;;18.10;38.80;;;;;;10483475;28;20710;-73
2023/05/15 20:06:15;;;;;;;3.03;2.80;;;18.10;38.60;;;;;;10475920;28;20231;-73
2023/05/15 20:11:51;;;;;;;3.27;3.07;;;18.20;38.30;;;;;;10470973;28;20315;-80
2023/05/15 20:17:22;;;;;;;3.10;2.80;;;18.20;38.70;;;;;;10441522;28;20315;-80
2023/05/15 20:22:27;;;;;;;3.43;3.20;;;18.20;38.70;;;;;;10487990;27;20233;-80
2023/05/15 20:27:32;;;;;;;3.70;3.40;;;18.20;38.20;;;;;;10485548;28;20246;-81
2023/05/15 20:32:36;;;;;;;3.77;3.47;;;18.10;38.30;;;;;;10485417;28;20228;-81
2023/05/15 20:37:41;;;;;;;3.50;3.30;;;18.10;38.20;;;;;;10490477;28;20231;-81
2023/05/15 20:42:52;;;;;;;4.90;3.43;;;18.00;38.20;;;;;;10480423;28;20723;-80
2023/05/15 20:47:59;;;;;;;3.93;3.63;;;18.00;38.20;;;;;;10481287;28;20215;-73
2023/05/15 20:53:03;;;;;;;3.83;3.27;;;17.90;38.40;;;;;;10485036;28;20277;-74
2023/05/15 20:58:07;;;;;;;4.37;3.53;;;17.90;38.30;;;;;;10485890;28;20259;-80
2023/05/15 21:03:13;;;;;;;2.93;2.73;;;17.90;38.40;;;;;;10488358;28;20232;-80
2023/05/15 21:08:17;;;;;;;2.97;2.77;;;17.80;38.20;;;;;;10493501;28;20223;-74
2023/05/15 21:19:32;;;;;;;4.10;3.83;;;17.50;38.20;;;;;;10499109;28;20224;-78
2023/05/15 21:24:49;;;;;;;5.73;4.30;;;17.40;38.30;;;;;;10459385;28;20230;-72
2023/05/15 21:29:57;;;;;;;5.63;3.63;;;17.30;37.90;;;;;;10483512;28;20240;-74
2023/05/15 21:35:05;;;;;;;5.07;4.37;;;17.10;38.60;;;;;;10479976;28;20702;-74
2023/05/15 21:40:12;;;;;;;4.07;3.77;;;16.90;38.80;;;;;;10492557;28;20220;-74
2023/05/15 21:45:16;;;;;;;6.23;5.57;;;16.80;38.60;;;;;;10492629;28;20224;-73
2023/05/15 21:50:21;;;;;;;5.30;4.80;;;16.70;38.80;;;;;;10485633;28;20278;-73
2023/05/15 21:55:24;;;;;;;4.47;4.17;;;16.70;39.00;;;;;;10484327;28;20239;-74
2023/05/15 22:00:28;;;;;;;4.00;3.70;;;16.60;38.70;;;;;;10489132;28;20907;-73
2023/05/15 22:05:33;;;;;;;4.03;3.73;;;16.50;38.80;;;;;;10491080;28;20224;-74
2023/05/15 22:10:37;;;;;;;4.10;3.80;;;16.50;39.20;;;;;;10488129;28;20220;-72
2023/05/15 22:21:08;;;;;;;4.33;4.03;;;16.40;39.10;;;;;;10484167;28;20247;-75
2023/05/15 22:26:18;;;;;;;4.27;3.87;;;16.40;39.40;;;;;;10477084;28;20768;-73
2023/05/15 22:31:23;;;;;;;4.80;4.40;;;16.30;38.80;;;;;;10485758;28;20256;-74
2023/05/15 22:36:27;;;;;;;3.90;3.70;;;16.20;39.40;;;;;;10484766;28;20252;-74
2023/05/15 22:41:31;;;;;;;4.00;3.70;;;16.10;39.30;;;;;;10488827;28;20223;-74
2023/05/15 22:46:34;;;;;;;3.40;3.20;;;15.90;39.00;;;;;;10493860;28;20228;-73
2023/05/15 22:51:41;;;;;;;3.60;3.30;;;15.80;39.00;;;;;;10487748;28;20252;-74
2023/05/15 22:56:45;;;;;;;3.83;3.53;;;15.70;39.60;;;;;;10486459;28;20220;-74
2023/05/15 23:01:49;;;;;;;3.90;3.60;;;15.50;39.50;;;;;;10487441;28;20216;-73
2023/05/15 23:06:55;;;;;;;4.00;3.70;;;15.40;39.80;;;;;;10496448;28;20224;-74
2023/05/15 23:11:58;;;;;;;4.13;3.73;;;15.30;40.20;;;;;;10493444;28;20240;-74
2023/05/15 23:17:01;;;;;;;4.40;4.00;;;15.30;39.90;;;;;;10497657;28;20319;-73
2023/05/15 23:22:09;;;;;;;4.40;4.03;;;15.20;40.00;;;;;;10493571;28;20232;-74
2023/05/15 23:27:13;;;;;;;4.30;4.00;;;15.20;40.80;;;;;;10497878;28;20227;-74
2023/05/15 23:32:19;;;;;;;6.07;4.23;;;15.10;40.40;;;;;;10501320;28;20810;-75
2023/05/15 23:37:24;;;;;;;4.10;3.80;;;15.10;40.30;;;;;;10502731;28;20242;-74
2023/05/15 23:42:28;;;;;;;4.50;4.10;;;15.10;40.70;;;;;;10492871;28;20240;-74
2023/05/15 23:47:33;;;;;;;4.37;4.07;;;15.10;40.60;;;;;;10492462;28;20647;-71
2023/05/15 23:52:38;;;;;;;5.50;4.00;;;15.20;40.60;;;;;;10494405;28;20232;-72
2023/05/15 23:57:45;;;;;;;4.40;4.10;;;15.20;40.90;;;;;;10487298;28;20277;-72
